createdAt,value
2018-03-17T00:00:36.860Z,5.53
2018-03-17T00:03:03.929Z,4.60
2018-03-17T00:05:30.965Z,3.47
2018-03-17T00:07:58.030Z,4.20
2018-03-17T00:13:05.124Z,4.65
2018-03-17T00:15:32.227Z,3.17
2018-03-17T00:17:59.260Z,4.90
2018-03-17T00:20:26.318Z,6.23
2018-03-17T00:22:53.818Z,5.67
2018-03-17T00:25:20.869Z,4.97
2018-03-17T00:27:48.858Z,4.73
2018-03-17T00:30:15.958Z,4.33
2018-03-17T00:35:24.382Z,4.32
2018-03-17T00:37:56.574Z,4.33
2018-03-17T00:40:23.666Z,3.90
2018-03-17T00:42:50.702Z,4.87
2018-03-17T00:45:18.613Z,4.20
2018-03-17T00:47:46.666Z,6.87
2018-03-17T00:50:13.733Z,4.33
2018-03-17T00:52:42.635Z,6.73
2018-03-17T00:55:10.688Z,4.73
2018-03-17T00:57:38.662Z,5.83
2018-03-17T01:00:06.633Z,4.97
2018-03-17T01:02:34.672Z,4.13
2018-03-17T01:05:02.430Z,4.00
2018-03-17T01:07:29.988Z,5.00
2018-03-17T01:09:57.531Z,4.90
2018-03-17T01:12:25.100Z,4.37
2018-03-17T01:14:52.162Z,6.73
2018-03-17T01:17:19.275Z,5.00
2018-03-17T01:19:46.350Z,6.70
2018-03-17T01:22:13.401Z,5.10
2018-03-17T01:24:40.527Z,6.40
2018-03-17T01:27:08.395Z,5.67
2018-03-17T01:29:35.457Z,6.40
2018-03-17T01:32:02.552Z,6.20
2018-03-17T01:34:33.139Z,6.20
2018-03-17T01:37:00.202Z,7.37
2018-03-17T01:39:27.303Z,4.67
2018-03-17T01:41:55.102Z,4.00
2018-03-17T01:44:23.116Z,6.90
2018-03-17T01:46:50.196Z,7.80
2018-03-17T01:49:17.255Z,6.47
2018-03-17T01:51:44.300Z,5.03
2018-03-17T01:54:23.249Z,7.83
2018-03-17T01:59:28.865Z,3.83
2018-03-17T02:01:55.912Z,5.73
2018-03-17T02:04:22.951Z,4.70
2018-03-17T02:06:51.024Z,6.07
2018-03-17T02:09:18.041Z,3.57
2018-03-17T02:11:45.518Z,5.93
2018-03-17T02:14:12.720Z,3.80
2018-03-17T02:16:39.829Z,4.10
2018-03-17T02:19:06.826Z,7.53
2018-03-17T02:21:33.910Z,8.30
2018-03-17T02:24:00.960Z,4.93
2018-03-17T02:26:28.084Z,7.43
2018-03-17T02:28:55.208Z,9.33
2018-03-17T02:31:22.257Z,12.07
2018-03-17T02:33:49.302Z,5.43
2018-03-17T02:36:16.377Z,5.87
2018-03-17T02:38:43.496Z,6.60
2018-03-17T02:41:11.502Z,4.80
2018-03-17T02:43:39.447Z,4.93
2018-03-17T02:46:09.799Z,4.20
2018-03-17T02:48:37.824Z,8.83
2018-03-17T02:51:04.885Z,5.33
2018-03-17T02:53:31.927Z,7.97
2018-03-17T02:55:58.974Z,5.57
2018-03-17T02:58:27.170Z,7.20
2018-03-17T03:00:54.295Z,6.43
2018-03-17T03:03:21.347Z,7.70
2018-03-17T03:05:50.988Z,5.23
2018-03-17T03:08:18.040Z,6.70
2018-03-17T03:10:45.072Z,3.90
2018-03-17T03:13:12.248Z,4.57
2018-03-17T03:15:39.741Z,5.40
2018-03-17T03:18:06.768Z,6.20
2018-03-17T03:20:34.287Z,5.77
2018-03-17T03:23:02.261Z,5.60
2018-03-17T03:28:07.852Z,6.12
2018-03-17T03:30:34.884Z,6.37
2018-03-17T03:33:01.918Z,8.50
2018-03-17T03:35:29.012Z,6.37
2018-03-17T03:37:57.019Z,4.33
2018-03-17T03:40:24.069Z,3.93
2018-03-17T03:42:51.234Z,5.33
2018-03-17T03:45:18.290Z,4.77
2018-03-17T03:47:45.327Z,6.03
2018-03-17T03:50:12.407Z,7.37
2018-03-17T03:52:39.909Z,5.80
2018-03-17T03:55:06.946Z,5.20
2018-03-17T03:57:34.130Z,7.00
2018-03-17T04:00:01.174Z,6.93
2018-03-17T04:02:28.215Z,8.30
2018-03-17T04:04:55.280Z,5.73
2018-03-17T04:07:22.323Z,6.30
2018-03-17T04:09:49.354Z,6.13
2018-03-17T04:12:16.445Z,5.90
2018-03-17T04:14:43.475Z,6.50
2018-03-17T04:17:10.518Z,5.20
2018-03-17T04:19:37.600Z,6.70
2018-03-17T04:22:04.631Z,4.67
2018-03-17T04:24:31.666Z,6.07
2018-03-17T04:26:58.743Z,6.40
2018-03-17T04:29:25.791Z,5.47
2018-03-17T04:31:52.921Z,4.90
2018-03-17T04:34:20.048Z,4.50
2018-03-17T04:36:47.088Z,5.63
2018-03-17T04:39:14.148Z,7.57
2018-03-17T04:41:42.057Z,6.73
2018-03-17T04:44:09.101Z,4.30
2018-03-17T04:49:14.705Z,5.07
2018-03-17T04:51:41.738Z,4.73
2018-03-17T04:54:08.771Z,4.73
2018-03-17T04:56:36.714Z,6.47
2018-03-17T04:59:03.754Z,4.10
2018-03-17T05:01:31.641Z,3.87
2018-03-17T05:03:58.731Z,8.07
2018-03-17T05:06:25.786Z,7.67
2018-03-17T05:08:53.398Z,4.30
2018-03-17T05:11:21.349Z,3.50
2018-03-17T05:13:48.392Z,4.37
2018-03-17T05:16:15.436Z,7.67
2018-03-17T05:18:42.564Z,6.40
2018-03-17T05:21:09.604Z,6.30
2018-03-17T05:23:36.670Z,6.73
2018-03-17T05:26:03.764Z,5.93
2018-03-17T05:28:30.816Z,7.23
2018-03-17T05:30:57.860Z,6.47
2018-03-17T05:33:25.932Z,5.70
2018-03-17T05:35:52.958Z,5.47
2018-03-17T05:38:19.988Z,6.33
2018-03-17T05:40:47.076Z,7.07
2018-03-17T05:43:14.119Z,6.53
2018-03-17T05:45:41.159Z,6.27
2018-03-17T05:48:08.261Z,6.67
2018-03-17T05:53:16.218Z,8.02
2018-03-17T05:55:44.089Z,5.20
2018-03-17T05:58:15.948Z,6.00
2018-03-17T06:00:39.040Z,4.63
2018-03-17T06:03:06.706Z,7.67
2018-03-17T06:05:34.241Z,6.77
2018-03-17T06:08:02.270Z,6.53
2018-03-17T06:10:29.298Z,5.63
2018-03-17T06:12:58.458Z,6.63
2018-03-17T06:17:58.849Z,9.20
2018-03-17T06:20:25.920Z,6.30
2018-03-17T06:22:53.919Z,7.33
2018-03-17T06:25:21.008Z,6.73
2018-03-17T06:27:49.018Z,4.80
2018-03-17T06:30:16.056Z,9.87
2018-03-17T06:32:43.101Z,5.67
2018-03-17T06:35:10.198Z,6.50
2018-03-17T06:37:37.234Z,8.93
2018-03-17T06:40:05.223Z,9.50
2018-03-17T06:42:32.395Z,8.77
2018-03-17T06:44:59.746Z,11.47
2018-03-17T06:47:26.772Z,9.20
2018-03-17T06:49:53.929Z,10.50
2018-03-17T06:52:24.236Z,9.80
2018-03-17T06:54:51.317Z,6.00
2018-03-17T06:57:18.407Z,10.60
2018-03-17T06:59:45.440Z,8.23
2018-03-17T07:02:12.484Z,7.67
2018-03-17T07:04:39.570Z,13.13
2018-03-17T07:07:06.930Z,8.63
2018-03-17T07:09:34.052Z,8.67
2018-03-17T07:14:40.254Z,8.73
2018-03-17T07:17:07.353Z,6.33
2018-03-17T07:19:34.421Z,5.60
2018-03-17T07:22:02.527Z,7.43
2018-03-17T07:24:30.579Z,6.27
2018-03-17T07:26:58.326Z,7.23
2018-03-17T07:29:25.370Z,6.30
2018-03-17T07:31:52.432Z,6.23
2018-03-17T07:34:19.473Z,7.83
2018-03-17T07:36:46.530Z,9.23
2018-03-17T07:39:13.740Z,6.87
2018-03-17T07:41:40.755Z,7.00
2018-03-17T07:44:07.766Z,6.70
2018-03-17T07:46:34.847Z,8.10
2018-03-17T07:49:02.207Z,10.00
2018-03-17T07:51:29.259Z,7.53
2018-03-17T07:53:56.516Z,8.47
2018-03-17T07:56:23.540Z,10.73
2018-03-17T07:58:50.571Z,7.43
2018-03-17T08:01:18.375Z,5.60
2018-03-17T08:03:45.133Z,6.47
2018-03-17T08:06:12.091Z,7.50
2018-03-17T08:08:39.156Z,9.27
2018-03-17T08:11:06.303Z,5.87
2018-03-17T08:13:34.359Z,5.53
2018-03-17T08:16:04.598Z,4.80
2018-03-17T08:18:31.729Z,5.23
2018-03-17T08:20:59.260Z,4.87
2018-03-17T08:23:27.599Z,7.13
2018-03-17T08:25:55.587Z,4.40
2018-03-17T08:28:22.633Z,9.17
2018-03-17T08:30:49.717Z,5.43
2018-03-17T08:33:16.774Z,6.37
2018-03-17T08:38:23.239Z,8.55
2018-03-17T08:40:50.307Z,6.00
2018-03-17T08:43:17.345Z,6.93
2018-03-17T08:45:45.028Z,9.53
2018-03-17T08:48:12.080Z,9.63
2018-03-17T08:50:39.139Z,8.57
2018-03-17T08:53:06.719Z,9.80
2018-03-17T08:55:34.123Z,9.10
2018-03-17T08:58:01.191Z,12.70
2018-03-17T09:00:28.710Z,12.90
2018-03-17T09:02:56.712Z,13.60
2018-03-17T09:05:23.737Z,13.73
2018-03-17T09:07:50.820Z,11.00
2018-03-17T09:10:17.857Z,13.40
2018-03-17T09:12:44.903Z,14.23
2018-03-17T09:15:13.018Z,14.43
2018-03-17T09:17:40.429Z,13.13
2018-03-17T09:20:07.488Z,13.87
2018-03-17T09:22:34.574Z,15.77
2018-03-17T09:25:01.654Z,14.47
2018-03-17T09:27:31.590Z,12.33
2018-03-17T09:29:59.660Z,13.67
2018-03-17T09:32:26.727Z,12.07
2018-03-17T09:34:54.622Z,14.67
2018-03-17T09:37:22.211Z,12.10
2018-03-17T09:39:50.789Z,11.33
2018-03-17T09:42:17.854Z,13.53
2018-03-17T09:44:45.257Z,13.83
2018-03-17T09:47:12.290Z,11.60
2018-03-17T09:49:43.935Z,14.23
2018-03-17T09:52:08.274Z,10.57
2018-03-17T09:54:35.855Z,9.07
2018-03-17T09:59:38.411Z,8.35
2018-03-17T10:02:05.423Z,6.43
2018-03-17T10:04:33.026Z,6.10
2018-03-17T10:07:00.080Z,6.40
2018-03-17T10:09:28.389Z,4.87
2018-03-17T10:11:55.432Z,6.77
2018-03-17T10:14:22.550Z,6.73
2018-03-17T10:16:49.605Z,6.33
2018-03-17T10:19:16.640Z,5.07
2018-03-17T10:21:43.716Z,6.47
2018-03-17T10:24:10.757Z,6.00
2018-03-17T10:26:38.056Z,5.33
2018-03-17T10:29:05.173Z,5.43
2018-03-17T10:31:32.225Z,5.00
2018-03-17T10:33:59.250Z,6.30
2018-03-17T10:36:27.274Z,6.60
2018-03-17T10:38:54.368Z,5.20
2018-03-17T10:41:23.383Z,5.77
2018-03-17T10:43:51.354Z,4.80
2018-03-17T10:46:18.399Z,4.47
2018-03-17T10:48:45.471Z,3.53
2018-03-17T10:51:12.556Z,3.13
2018-03-17T10:53:39.594Z,4.23
2018-03-17T10:56:06.633Z,4.07
2018-03-17T10:58:33.723Z,4.13
2018-03-17T11:01:00.767Z,4.07
2018-03-17T11:03:27.811Z,5.27
2018-03-17T11:05:54.995Z,5.53
2018-03-17T11:08:21.967Z,5.27
2018-03-17T11:10:49.795Z,4.40
2018-03-17T11:13:16.881Z,5.33
2018-03-17T11:18:23.256Z,5.25
2018-03-17T11:20:51.736Z,4.53
2018-03-17T11:23:19.266Z,5.93
2018-03-17T11:25:46.418Z,5.13
2018-03-17T11:30:40.625Z,3.87
2018-03-17T11:33:08.049Z,5.33
2018-03-17T11:38:14.838Z,4.62
2018-03-17T11:40:42.621Z,4.57
2018-03-17T11:43:09.658Z,6.40
2018-03-17T11:45:36.736Z,3.60
2018-03-17T11:48:03.781Z,4.20
2018-03-17T11:50:31.646Z,4.27
2018-03-17T11:52:58.748Z,4.27
2018-03-17T11:55:29.057Z,5.10
2018-03-17T11:57:56.113Z,3.50
2018-03-17T12:00:24.140Z,3.53
2018-03-17T12:02:51.183Z,3.03
2018-03-17T12:05:18.220Z,3.13
2018-03-17T12:07:45.359Z,4.23
2018-03-17T12:10:12.482Z,2.33
2018-03-17T12:12:39.566Z,2.50
2018-03-17T12:15:06.686Z,2.50
2018-03-17T12:17:34.706Z,3.37
2018-03-17T12:20:02.244Z,4.10
2018-03-17T12:22:29.344Z,3.13
2018-03-17T12:24:56.440Z,3.60
2018-03-17T12:27:23.497Z,3.10
2018-03-17T12:29:50.627Z,4.37
2018-03-17T12:32:17.802Z,2.97
2018-03-17T12:37:24.623Z,2.97
2018-03-17T12:39:52.655Z,3.00
2018-03-17T12:42:19.726Z,4.00
2018-03-17T12:44:47.780Z,3.13
2018-03-17T12:47:14.864Z,4.07
2018-03-17T12:49:41.924Z,2.07
2018-03-17T12:52:09.032Z,2.10
2018-03-17T12:54:36.110Z,2.13
2018-03-17T12:57:03.177Z,2.90
2018-03-17T12:59:30.283Z,2.00
2018-03-17T13:01:58.305Z,2.23
2018-03-17T13:04:27.391Z,3.13
2018-03-17T13:06:54.909Z,3.90
2018-03-17T13:11:53.765Z,2.00
2018-03-17T13:14:20.885Z,3.33
2018-03-17T13:16:48.895Z,2.67
2018-03-17T13:19:27.833Z,2.00
2018-03-17T13:21:55.701Z,3.77
2018-03-17T13:24:22.737Z,2.80
2018-03-17T13:27:02.554Z,2.30
2018-03-17T13:29:30.982Z,4.00
2018-03-17T13:31:58.009Z,1.27
2018-03-17T13:34:25.089Z,3.20
2018-03-17T13:37:03.894Z,1.67
2018-03-17T13:39:31.408Z,2.42
2018-03-17T13:42:00.806Z,1.43
2018-03-17T13:44:29.411Z,3.83
2018-03-17T13:46:56.044Z,1.63
2018-03-17T13:49:23.108Z,1.60
2018-03-17T13:51:50.636Z,2.40
2018-03-17T13:54:17.749Z,2.43
2018-03-17T13:56:44.855Z,1.33
2018-03-17T14:01:50.515Z,1.30
2018-03-17T14:04:18.663Z,1.60
2018-03-17T14:06:46.430Z,1.80
2018-03-17T14:09:13.528Z,2.50
2018-03-17T14:11:41.943Z,1.67
2018-03-17T14:14:09.753Z,1.00
2018-03-17T14:21:59.273Z,1.80
2018-03-17T14:24:26.782Z,1.67
2018-03-17T14:26:53.916Z,1.10
2018-03-17T14:29:21.013Z,3.67
2018-03-17T14:31:48.173Z,4.37
2018-03-17T14:34:15.198Z,4.20
2018-03-17T14:36:42.273Z,5.83
2018-03-17T14:39:09.470Z,7.70
2018-03-17T14:41:40.254Z,3.20
2018-03-17T14:44:08.521Z,3.33
2018-03-17T14:46:35.880Z,3.93
2018-03-17T14:49:02.964Z,4.03
2018-03-17T14:51:30.474Z,3.67
2018-03-17T14:53:57.571Z,6.33
2018-03-17T14:59:10.573Z,6.93
2018-03-17T15:01:37.660Z,9.87
2018-03-17T15:04:04.715Z,8.10
2018-03-17T15:06:31.761Z,6.43
2018-03-17T15:08:59.309Z,9.63
2018-03-17T15:11:26.343Z,7.50
2018-03-17T15:13:53.406Z,7.20
2018-03-17T15:16:20.502Z,8.63
2018-03-17T15:18:49.358Z,7.10
2018-03-17T15:21:14.554Z,9.40
2018-03-17T15:23:42.032Z,10.63
2018-03-17T15:26:09.053Z,6.97
2018-03-17T15:28:36.095Z,8.80
2018-03-17T15:31:03.177Z,10.57
2018-03-17T15:33:31.067Z,10.80
2018-03-17T15:35:59.987Z,9.03
2018-03-17T15:38:25.203Z,12.20
2018-03-17T15:40:52.237Z,8.43
2018-03-17T15:43:20.236Z,7.90
2018-03-17T15:48:20.457Z,11.73
2018-03-17T15:50:49.332Z,7.97
2018-03-17T15:53:16.407Z,10.00
2018-03-17T15:55:43.431Z,9.03
2018-03-17T15:58:10.531Z,9.83
2018-03-17T16:00:37.701Z,9.37
2018-03-17T16:03:04.728Z,7.77
2018-03-17T16:05:31.827Z,9.07
2018-03-17T16:07:58.866Z,8.50
2018-03-17T16:10:26.815Z,8.70
2018-03-17T16:12:54.813Z,10.43
2018-03-17T16:15:21.848Z,11.07
2018-03-17T16:17:49.367Z,10.27
2018-03-17T16:20:16.465Z,11.47
2018-03-17T16:25:22.447Z,10.43
2018-03-17T16:27:49.496Z,12.70
2018-03-17T16:30:16.547Z,11.13
2018-03-17T16:32:43.651Z,10.23
2018-03-17T16:35:10.701Z,9.37
2018-03-17T16:37:38.231Z,11.13
2018-03-17T16:40:05.345Z,11.23
2018-03-17T16:42:32.388Z,10.67
2018-03-17T16:45:00.928Z,10.37
2018-03-17T16:47:31.347Z,11.97
2018-03-17T16:49:56.007Z,11.57
2018-03-17T16:52:23.295Z,11.23
2018-03-17T16:54:50.799Z,13.13
2018-03-17T16:57:18.104Z,13.77
2018-03-17T16:59:45.223Z,18.60
2018-03-17T17:02:12.438Z,15.60
2018-03-17T17:04:39.486Z,16.47
2018-03-17T17:07:06.517Z,15.53
2018-03-17T17:09:33.608Z,13.90
2018-03-17T17:12:00.650Z,15.63
2018-03-17T17:14:28.552Z,15.77
2018-03-17T17:16:56.393Z,13.53
2018-03-17T17:19:23.469Z,17.63
2018-03-17T17:21:50.519Z,16.10
2018-03-17T17:24:18.392Z,15.83
2018-03-17T17:26:46.334Z,17.27
2018-03-17T17:29:13.376Z,19.27
2018-03-17T17:31:43.886Z,19.07
2018-03-17T17:34:10.948Z,17.57
2018-03-17T17:36:38.342Z,16.73
2018-03-17T17:39:06.403Z,16.43
2018-03-17T17:41:37.438Z,18.30
2018-03-17T17:44:05.434Z,18.80
2018-03-17T17:46:33.489Z,18.20
2018-03-17T17:51:41.600Z,22.08
2018-03-17T17:54:08.636Z,21.53
2018-03-17T17:56:36.204Z,18.60
2018-03-17T17:59:03.315Z,19.00
2018-03-17T18:01:30.382Z,18.53
2018-03-17T18:03:57.407Z,18.77
2018-03-17T18:06:25.346Z,23.40
2018-03-17T18:08:52.798Z,20.20
2018-03-17T18:11:20.426Z,19.63
2018-03-17T18:13:47.909Z,20.87
2018-03-17T18:16:14.959Z,21.47
2018-03-17T18:18:42.029Z,20.20
2018-03-17T18:21:09.141Z,21.10
2018-03-17T18:23:36.207Z,23.13
2018-03-17T18:26:03.257Z,22.90
2018-03-17T18:28:31.320Z,22.47
2018-03-17T18:30:58.384Z,22.80
2018-03-17T18:33:25.958Z,27.20
2018-03-17T18:35:53.079Z,24.37
2018-03-17T18:38:20.119Z,22.13
2018-03-17T18:40:47.152Z,20.63
2018-03-17T18:43:14.644Z,21.83
2018-03-17T18:45:43.694Z,27.60
2018-03-17T18:48:08.730Z,28.10
2018-03-17T18:50:35.896Z,26.50
2018-03-17T18:53:05.747Z,23.60
2018-03-17T18:55:32.811Z,28.30
2018-03-17T18:57:59.873Z,30.87
2018-03-17T19:03:08.375Z,34.65
2018-03-17T19:05:35.459Z,28.63
2018-03-17T19:08:02.468Z,28.30
2018-03-17T19:10:29.576Z,27.27
2018-03-17T19:12:57.577Z,26.27
2018-03-17T19:15:24.656Z,26.63
2018-03-17T19:17:51.748Z,28.97
2018-03-17T19:20:18.822Z,28.43
2018-03-17T19:22:45.919Z,25.70
2018-03-17T19:25:13.015Z,23.73
2018-03-17T19:27:40.153Z,28.27
2018-03-17T19:30:07.330Z,28.20
2018-03-17T19:32:34.447Z,30.73
2018-03-17T19:35:01.487Z,28.10
2018-03-17T19:37:28.546Z,27.30
2018-03-17T19:39:55.630Z,28.03
2018-03-17T19:42:22.680Z,31.17
2018-03-17T19:44:49.687Z,138.87
2018-03-17T19:47:17.595Z,31.53
2018-03-17T19:49:44.646Z,32.00
2018-03-17T19:52:11.856Z,30.53
2018-03-17T19:54:38.933Z,29.30
2018-03-17T19:57:06.050Z,33.97
2018-03-17T20:02:08.624Z,32.90
2018-03-17T20:04:35.657Z,34.87
2018-03-17T20:07:02.684Z,34.53
2018-03-17T20:09:31.585Z,34.97
2018-03-17T20:11:58.732Z,31.07
2018-03-17T20:14:25.851Z,33.37
2018-03-17T20:16:52.941Z,35.30
2018-03-17T20:19:20.117Z,34.83
2018-03-17T20:21:48.128Z,33.93
2018-03-17T20:24:15.230Z,36.60
2018-03-17T20:26:42.279Z,39.97
2018-03-17T20:29:09.827Z,34.40
2018-03-17T20:34:46.038Z,36.27
2018-03-17T20:37:13.507Z,36.63
2018-03-17T20:39:40.543Z,40.70
2018-03-17T20:42:08.509Z,39.83
2018-03-17T20:44:35.767Z,31.47
2018-03-17T20:47:02.700Z,37.47
2018-03-17T20:49:29.721Z,45.63
2018-03-17T20:51:56.790Z,43.27
2018-03-17T20:54:23.834Z,42.50
2018-03-17T20:56:50.843Z,40.00
2018-03-17T20:59:20.910Z,43.43
2018-03-17T21:01:47.949Z,45.90
2018-03-17T21:04:15.096Z,41.03
2018-03-17T21:06:42.127Z,46.37
2018-03-17T21:09:09.164Z,42.03
2018-03-17T21:11:36.222Z,44.17
2018-03-17T21:14:03.378Z,43.17
2018-03-17T21:16:30.414Z,45.87
2018-03-17T21:18:57.417Z,42.60
2018-03-17T21:21:24.499Z,48.63
2018-03-17T21:23:51.542Z,49.50
2018-03-17T21:26:18.592Z,45.70
2018-03-17T21:28:45.655Z,49.97
2018-03-17T21:31:13.855Z,40.37
2018-03-17T21:33:40.880Z,48.37
2018-03-17T21:38:47.814Z,48.47
2018-03-17T21:41:14.932Z,45.57
2018-03-17T21:43:42.757Z,41.57
2018-03-17T21:46:09.064Z,44.17
2018-03-17T21:48:36.235Z,44.17
2018-03-17T21:51:03.269Z,43.57
2018-03-17T21:53:30.812Z,47.93
2018-03-17T21:56:01.426Z,48.20
2018-03-17T21:58:28.437Z,46.67
2018-03-17T22:00:55.455Z,46.43
2018-03-17T22:03:22.538Z,46.70
2018-03-17T22:05:57.643Z,43.97
2018-03-17T22:11:00.639Z,44.43
2018-03-17T22:13:27.680Z,37.97
2018-03-17T22:15:54.755Z,43.33
2018-03-17T22:18:21.837Z,47.23
2018-03-17T22:20:48.868Z,41.93
2018-03-17T22:23:15.898Z,35.03
2018-03-17T22:25:42.960Z,37.70
2018-03-17T22:28:10.008Z,41.87
2018-03-17T22:30:37.040Z,43.63
2018-03-17T22:33:04.118Z,43.00
2018-03-17T22:38:11.811Z,47.13
2018-03-17T22:40:41.830Z,40.37
2018-03-17T22:43:08.853Z,42.37
2018-03-17T22:45:37.166Z,39.50
2018-03-17T22:48:04.141Z,43.67
2018-03-17T22:50:31.175Z,45.50
2018-03-17T22:52:58.256Z,43.77
2018-03-17T22:55:26.733Z,41.90
2018-03-17T22:57:54.015Z,36.33
2018-03-17T23:00:21.042Z,39.93
2018-03-17T23:02:48.065Z,39.40
2018-03-17T23:05:15.102Z,39.80
2018-03-17T23:07:47.519Z,38.43
2018-03-17T23:10:13.873Z,43.43
2018-03-17T23:12:40.894Z,41.27
2018-03-17T23:15:07.983Z,39.97
2018-03-17T23:17:38.879Z,40.13
2018-03-17T23:20:04.862Z,41.50
2018-03-17T23:22:34.141Z,41.57
2018-03-17T23:25:01.246Z,40.07
2018-03-17T23:27:28.269Z,41.30
2018-03-17T23:29:55.344Z,44.60
2018-03-17T23:32:22.839Z,42.53
2018-03-17T23:34:49.863Z,44.00
2018-03-17T23:37:16.933Z,40.50
2018-03-17T23:39:43.953Z,41.50
2018-03-17T23:42:11.075Z,40.80
2018-03-17T23:44:39.010Z,44.20
2018-03-17T23:47:06.050Z,42.17
2018-03-17T23:49:33.076Z,41.97
2018-03-17T23:52:00.626Z,41.50
2018-03-17T23:54:27.739Z,42.13
2018-03-17T23:56:54.767Z,48.60
